sensor_id;sensor_type;location;lat;lon;timestamp;temperature;humidity
3348;DHT22;1687;49.540;8.574;2023-02-23T00:01:37;12.10;72.30
3348;DHT22;1687;49.540;8.574;2023-02-23T00:04:04;12.10;72.40
3348;DHT22;1687;49.540;8.574;2023-02-23T00:06:31;12.10;72.30
3348;DHT22;1687;49.540;8.574;2023-02-23T00:08:59;12.00;72.30
3348;DHT22;1687;49.540;8.574;2023-02-23T00:11:27;12.00;72.70
3348;DHT22;1687;49.540;8.574;2023-02-23T00:13:53;12.10;73.10
3348;DHT22;1687;49.540;8.574;2023-02-23T00:16:24;12.20;73.30
3348;DHT22;1687;49.540;8.574;2023-02-23T00:18:53;12.20;73.40
3348;DHT22;1687;49.540;8.574;2023-02-23T00:21:30;12.20;73.40
3348;DHT22;1687;49.540;8.574;2023-02-23T00:24:01;12.20;73.30
3348;DHT22;1687;49.540;8.574;2023-02-23T00:26:32;12.20;73.60
3348;DHT22;1687;49.540;8.574;2023-02-23T00:29:00;12.20;73.70
3348;DHT22;1687;49.540;8.574;2023-02-23T00:31:27;12.20;73.60
3348;DHT22;1687;49.540;8.574;2023-02-23T00:33:55;12.20;73.70
3348;DHT22;1687;49.540;8.574;2023-02-23T00:36:24;12.20;73.90
3348;DHT22;1687;49.540;8.574;2023-02-23T00:38:53;12.30;74.20
3348;DHT22;1687;49.540;8.574;2023-02-23T00:41:21;12.30;74.20
3348;DHT22;1687;49.540;8.574;2023-02-23T00:43:53;12.20;74.00
3348;DHT22;1687;49.540;8.574;2023-02-23T00:46:22;12.20;74.00
3348;DHT22;1687;49.540;8.574;2023-02-23T00:48:50;12.20;74.30
3348;DHT22;1687;49.540;8.574;2023-02-23T00:51:17;12.20;74.30
3348;DHT22;1687;49.540;8.574;2023-02-23T00:53:43;12.20;74.20
3348;DHT22;1687;49.540;8.574;2023-02-23T00:56:11;12.20;74.60
3348;DHT22;1687;49.540;8.574;2023-02-23T00:58:38;12.20;74.60
3348;DHT22;1687;49.540;8.574;2023-02-23T01:01:09;12.20;74.90
3348;DHT22;1687;49.540;8.574;2023-02-23T01:03:38;12.20;74.80
3348;DHT22;1687;49.540;8.574;2023-02-23T01:06:07;12.20;75.00
3348;DHT22;1687;49.540;8.574;2023-02-23T01:08:38;12.20;75.00
3348;DHT22;1687;49.540;8.574;2023-02-23T01:11:14;12.20;75.10
3348;DHT22;1687;49.540;8.574;2023-02-23T01:13:53;12.20;75.00
3348;DHT22;1687;49.540;8.574;2023-02-23T01:16:24;12.30;75.30
3348;DHT22;1687;49.540;8.574;2023-02-23T01:18:52;12.30;75.50
3348;DHT22;1687;49.540;8.574;2023-02-23T01:21:24;12.30;75.60
3348;DHT22;1687;49.540;8.574;2023-02-23T01:23:52;12.30;75.50
3348;DHT22;1687;49.540;8.574;2023-02-23T01:26:27;12.30;75.40
3348;DHT22;1687;49.540;8.574;2023-02-23T01:28:59;12.20;75.50
3348;DHT22;1687;49.540;8.574;2023-02-23T01:31:27;12.20;75.60
3348;DHT22;1687;49.540;8.574;2023-02-23T01:33:56;12.20;75.50
3348;DHT22;1687;49.540;8.574;2023-02-23T01:36:23;12.10;75.70
3348;DHT22;1687;49.540;8.574;2023-02-23T01:38:50;12.10;75.60
3348;DHT22;1687;49.540;8.574;2023-02-23T01:41:19;12.10;76.00
3348;DHT22;1687;49.540;8.574;2023-02-23T01:43:58;12.10;76.10
3348;DHT22;1687;49.540;8.574;2023-02-23T01:46:24;12.10;76.20
3348;DHT22;1687;49.540;8.574;2023-02-23T01:48:51;12.10;76.10
3348;DHT22;1687;49.540;8.574;2023-02-23T01:51:21;12.00;76.00
3348;DHT22;1687;49.540;8.574;2023-02-23T01:54:15;12.00;76.30
3348;DHT22;1687;49.540;8.574;2023-02-23T01:56:46;12.10;76.50
3348;DHT22;1687;49.540;8.574;2023-02-23T01:59:15;12.00;76.40
3348;DHT22;1687;49.540;8.574;2023-02-23T02:01:42;12.00;76.40
3348;DHT22;1687;49.540;8.574;2023-02-23T02:04:09;12.10;76.70
3348;DHT22;1687;49.540;8.574;2023-02-23T02:06:40;12.00;76.60
3348;DHT22;1687;49.540;8.574;2023-02-23T02:09:10;12.00;76.80
3348;DHT22;1687;49.540;8.574;2023-02-23T02:11:42;12.00;76.90
3348;DHT22;1687;49.540;8.574;2023-02-23T02:14:21;12.00;76.90
3348;DHT22;1687;49.540;8.574;2023-02-23T02:28:41;11.90;77.40
3348;DHT22;1687;49.540;8.574;2023-02-23T02:34:45;11.90;77.60
3348;DHT22;1687;49.540;8.574;2023-02-23T02:41:10;11.80;77.50
3348;DHT22;1687;49.540;8.574;2023-02-23T02:43:41;11.80;77.80
3348;DHT22;1687;49.540;8.574;2023-02-23T02:46:39;11.80;77.90
3348;DHT22;1687;49.540;8.574;2023-02-23T02:49:29;11.80;77.90
3348;DHT22;1687;49.540;8.574;2023-02-23T02:52:05;11.70;77.80
3348;DHT22;1687;49.540;8.574;2023-02-23T02:54:39;11.70;78.00
3348;DHT22;1687;49.540;8.574;2023-02-23T02:57:07;11.70;78.20
3348;DHT22;1687;49.540;8.574;2023-02-23T02:59:46;11.70;78.50
3348;DHT22;1687;49.540;8.574;2023-02-23T03:02:34;11.70;78.40
3348;DHT22;1687;49.540;8.574;2023-02-23T03:05:24;11.80;78.50
3348;DHT22;1687;49.540;8.574;2023-02-23T03:11:09;11.80;79.00
3348;DHT22;1687;49.540;8.574;2023-02-23T03:14:11;11.80;78.70
3348;DHT22;1687;49.540;8.574;2023-02-23T03:17:46;11.80;79.20
3348;DHT22;1687;49.540;8.574;2023-02-23T03:23:17;11.80;79.60
3348;DHT22;1687;49.540;8.574;2023-02-23T03:26:13;11.80;79.40
3348;DHT22;1687;49.540;8.574;2023-02-23T03:29:10;11.80;79.50
3348;DHT22;1687;49.540;8.574;2023-02-23T03:35:00;11.90;79.90
3348;DHT22;1687;49.540;8.574;2023-02-23T03:38:12;12.00;80.00
3348;DHT22;1687;49.540;8.574;2023-02-23T03:40:59;12.00;80.00
3348;DHT22;1687;49.540;8.574;2023-02-23T03:43:48;12.00;79.90
3348;DHT22;1687;49.540;8.574;2023-02-23T03:46:37;12.00;80.10
3348;DHT22;1687;49.540;8.574;2023-02-23T03:49:23;12.00;80.20
3348;DHT22;1687;49.540;8.574;2023-02-23T03:52:19;12.00;80.40
3348;DHT22;1687;49.540;8.574;2023-02-23T03:55:11;12.00;80.40
3348;DHT22;1687;49.540;8.574;2023-02-23T03:58:02;12.00;80.70
3348;DHT22;1687;49.540;8.574;2023-02-23T04:00:50;12.00;80.60
3348;DHT22;1687;49.540;8.574;2023-02-23T04:03:39;12.00;80.50
3348;DHT22;1687;49.540;8.574;2023-02-23T04:06:28;12.00;80.80
3348;DHT22;1687;49.540;8.574;2023-02-23T04:09:16;12.00;80.70
3348;DHT22;1687;49.540;8.574;2023-02-23T04:13:05;12.00;80.90
3348;DHT22;1687;49.540;8.574;2023-02-23T04:15:32;12.00;81.10
3348;DHT22;1687;49.540;8.574;2023-02-23T04:18:03;11.90;81.00
3348;DHT22;1687;49.540;8.574;2023-02-23T04:20:30;11.90;81.30
3348;DHT22;1687;49.540;8.574;2023-02-23T04:22:55;11.90;80.70
3348;DHT22;1687;49.540;8.574;2023-02-23T04:25:21;11.80;80.90
3348;DHT22;1687;49.540;8.574;2023-02-23T04:27:51;11.70;80.90
3348;DHT22;1687;49.540;8.574;2023-02-23T04:30:17;11.70;81.30
3348;DHT22;1687;49.540;8.574;2023-02-23T04:32:44;11.70;81.30
3348;DHT22;1687;49.540;8.574;2023-02-23T04:35:12;11.70;81.40
3348;DHT22;1687;49.540;8.574;2023-02-23T04:37:38;11.70;81.60
3348;DHT22;1687;49.540;8.574;2023-02-23T04:40:04;11.60;81.60
3348;DHT22;1687;49.540;8.574;2023-02-23T04:42:31;11.70;81.80
3348;DHT22;1687;49.540;8.574;2023-02-23T04:44:56;11.60;81.70
3348;DHT22;1687;49.540;8.574;2023-02-23T04:47:23;11.60;82.30
3348;DHT22;1687;49.540;8.574;2023-02-23T04:49:49;11.60;82.00
3348;DHT22;1687;49.540;8.574;2023-02-23T04:52:15;11.60;82.50
3348;DHT22;1687;49.540;8.574;2023-02-23T04:54:41;11.60;82.30
3348;DHT22;1687;49.540;8.574;2023-02-23T04:57:07;11.60;82.40
3348;DHT22;1687;49.540;8.574;2023-02-23T04:59:34;11.50;82.50
3348;DHT22;1687;49.540;8.574;2023-02-23T05:02:00;11.60;83.10
3348;DHT22;1687;49.540;8.574;2023-02-23T05:04:26;11.60;83.10
3348;DHT22;1687;49.540;8.574;2023-02-23T05:06:51;11.60;83.10
3348;DHT22;1687;49.540;8.574;2023-02-23T05:09:17;11.60;83.30
3348;DHT22;1687;49.540;8.574;2023-02-23T05:11:43;11.60;83.40
3348;DHT22;1687;49.540;8.574;2023-02-23T05:14:09;11.60;83.50
3348;DHT22;1687;49.540;8.574;2023-02-23T05:16:37;11.60;83.20
3348;DHT22;1687;49.540;8.574;2023-02-23T05:19:03;11.50;83.70
3348;DHT22;1687;49.540;8.574;2023-02-23T05:21:28;11.50;83.70
3348;DHT22;1687;49.540;8.574;2023-02-23T05:23:54;11.60;84.40
3348;DHT22;1687;49.540;8.574;2023-02-23T05:26:21;11.60;84.10
3348;DHT22;1687;49.540;8.574;2023-02-23T05:28:47;11.60;84.40
3348;DHT22;1687;49.540;8.574;2023-02-23T05:31:13;11.60;84.60
3348;DHT22;1687;49.540;8.574;2023-02-23T05:33:39;11.50;84.20
3348;DHT22;1687;49.540;8.574;2023-02-23T05:36:13;11.50;85.00
3348;DHT22;1687;49.540;8.574;2023-02-23T05:38:42;11.50;84.70
3348;DHT22;1687;49.540;8.574;2023-02-23T05:41:11;11.50;85.50
3348;DHT22;1687;49.540;8.574;2023-02-23T05:43:39;11.50;85.80
3348;DHT22;1687;49.540;8.574;2023-02-23T05:46:13;11.60;85.80
3348;DHT22;1687;49.540;8.574;2023-02-23T05:48:40;11.60;86.80
3348;DHT22;1687;49.540;8.574;2023-02-23T05:51:11;11.60;86.50
3348;DHT22;1687;49.540;8.574;2023-02-23T05:53:38;11.60;86.40
3348;DHT22;1687;49.540;8.574;2023-02-23T05:56:06;11.70;87.20
3348;DHT22;1687;49.540;8.574;2023-02-23T05:58:33;11.80;87.40
3348;DHT22;1687;49.540;8.574;2023-02-23T06:00:59;11.80;87.60
3348;DHT22;1687;49.540;8.574;2023-02-23T06:03:24;11.90;87.70
3348;DHT22;1687;49.540;8.574;2023-02-23T06:05:52;11.80;88.10
3348;DHT22;1687;49.540;8.574;2023-02-23T06:08:19;11.80;87.90
3348;DHT22;1687;49.540;8.574;2023-02-23T06:10:45;11.80;88.30
3348;DHT22;1687;49.540;8.574;2023-02-23T06:13:11;11.80;88.60
3348;DHT22;1687;49.540;8.574;2023-02-23T06:15:38;11.80;88.80
3348;DHT22;1687;49.540;8.574;2023-02-23T06:18:04;11.90;89.40
3348;DHT22;1687;49.540;8.574;2023-02-23T06:20:30;11.90;89.10
3348;DHT22;1687;49.540;8.574;2023-02-23T06:22:56;11.80;89.30
3348;DHT22;1687;49.540;8.574;2023-02-23T06:25:22;11.90;90.10
3348;DHT22;1687;49.540;8.574;2023-02-23T06:27:48;11.90;90.20
3348;DHT22;1687;49.540;8.574;2023-02-23T06:30:14;12.00;90.30
3348;DHT22;1687;49.540;8.574;2023-02-23T06:32:40;12.00;90.30
3348;DHT22;1687;49.540;8.574;2023-02-23T06:35:07;12.00;90.50
3348;DHT22;1687;49.540;8.574;2023-02-23T06:37:34;12.00;90.50
3348;DHT22;1687;49.540;8.574;2023-02-23T06:40:00;12.00;90.70
3348;DHT22;1687;49.540;8.574;2023-02-23T06:42:25;11.90;90.40
3348;DHT22;1687;49.540;8.574;2023-02-23T06:44:51;11.90;90.60
3348;DHT22;1687;49.540;8.574;2023-02-23T06:47:17;11.90;90.90
3348;DHT22;1687;49.540;8.574;2023-02-23T06:49:42;11.80;91.20
3348;DHT22;1687;49.540;8.574;2023-02-23T06:52:09;11.90;91.00
3348;DHT22;1687;49.540;8.574;2023-02-23T06:54:34;11.90;91.10
3348;DHT22;1687;49.540;8.574;2023-02-23T06:57:02;11.80;91.00
3348;DHT22;1687;49.540;8.574;2023-02-23T06:59:28;11.90;91.60
3348;DHT22;1687;49.540;8.574;2023-02-23T07:01:54;11.90;91.40
3348;DHT22;1687;49.540;8.574;2023-02-23T07:04:20;11.90;91.90
3348;DHT22;1687;49.540;8.574;2023-02-23T07:06:46;11.80;91.60
3348;DHT22;1687;49.540;8.574;2023-02-23T07:09:12;11.90;91.80
3348;DHT22;1687;49.540;8.574;2023-02-23T07:11:40;11.90;92.10
3348;DHT22;1687;49.540;8.574;2023-02-23T07:14:10;12.00;92.30
3348;DHT22;1687;49.540;8.574;2023-02-23T07:16:36;12.10;92.40
3348;DHT22;1687;49.540;8.574;2023-02-23T07:19:03;12.20;92.50
3348;DHT22;1687;49.540;8.574;2023-02-23T07:21:30;12.20;92.50
3348;DHT22;1687;49.540;8.574;2023-02-23T07:23:59;12.30;92.70
3348;DHT22;1687;49.540;8.574;2023-02-23T07:26:26;12.20;92.40
3348;DHT22;1687;49.540;8.574;2023-02-23T07:28:52;12.20;92.70
3348;DHT22;1687;49.540;8.574;2023-02-23T07:31:17;12.20;92.80
3348;DHT22;1687;49.540;8.574;2023-02-23T07:33:43;12.10;92.70
3348;DHT22;1687;49.540;8.574;2023-02-23T07:36:09;12.20;92.90
3348;DHT22;1687;49.540;8.574;2023-02-23T07:38:35;12.30;93.30
3348;DHT22;1687;49.540;8.574;2023-02-23T07:41:02;12.30;93.10
3348;DHT22;1687;49.540;8.574;2023-02-23T07:43:28;12.30;93.40
3348;DHT22;1687;49.540;8.574;2023-02-23T07:45:57;12.20;93.10
3348;DHT22;1687;49.540;8.574;2023-02-23T07:48:23;12.20;93.40
3348;DHT22;1687;49.540;8.574;2023-02-23T07:50:49;12.20;93.40
3348;DHT22;1687;49.540;8.574;2023-02-23T07:53:14;12.30;93.60
3348;DHT22;1687;49.540;8.574;2023-02-23T07:55:41;12.30;93.60
3348;DHT22;1687;49.540;8.574;2023-02-23T07:58:07;12.40;93.80
3348;DHT22;1687;49.540;8.574;2023-02-23T08:00:35;12.30;93.30
3348;DHT22;1687;49.540;8.574;2023-02-23T08:03:03;12.30;93.70
3348;DHT22;1687;49.540;8.574;2023-02-23T08:05:28;12.20;93.40
3348;DHT22;1687;49.540;8.574;2023-02-23T08:07:54;12.10;93.40
3348;DHT22;1687;49.540;8.574;2023-02-23T08:10:22;12.00;93.90
3348;DHT22;1687;49.540;8.574;2023-02-23T08:12:47;12.10;94.00
3348;DHT22;1687;49.540;8.574;2023-02-23T08:15:13;12.10;94.20
3348;DHT22;1687;49.540;8.574;2023-02-23T08:17:39;12.20;94.40
3348;DHT22;1687;49.540;8.574;2023-02-23T08:20:06;12.20;94.40
3348;DHT22;1687;49.540;8.574;2023-02-23T08:22:33;12.30;94.50
3348;DHT22;1687;49.540;8.574;2023-02-23T08:24:58;12.20;94.30
3348;DHT22;1687;49.540;8.574;2023-02-23T08:27:24;12.20;94.60
3348;DHT22;1687;49.540;8.574;2023-02-23T08:29:53;12.20;94.60
3348;DHT22;1687;49.540;8.574;2023-02-23T08:32:20;12.20;94.50
3348;DHT22;1687;49.540;8.574;2023-02-23T08:34:46;12.30;94.90
3348;DHT22;1687;49.540;8.574;2023-02-23T08:37:12;12.30;94.70
3348;DHT22;1687;49.540;8.574;2023-02-23T08:39:38;12.30;94.60
3348;DHT22;1687;49.540;8.574;2023-02-23T08:42:04;12.30;94.80
3348;DHT22;1687;49.540;8.574;2023-02-23T08:44:29;12.30;95.20
3348;DHT22;1687;49.540;8.574;2023-02-23T08:46:56;12.50;95.20
3348;DHT22;1687;49.540;8.574;2023-02-23T08:49:23;12.60;95.40
3348;DHT22;1687;49.540;8.574;2023-02-23T08:51:50;12.60;95.10
3348;DHT22;1687;49.540;8.574;2023-02-23T08:54:16;12.70;95.60
3348;DHT22;1687;49.540;8.574;2023-02-23T08:56:43;12.90;95.80
3348;DHT22;1687;49.540;8.574;2023-02-23T08:59:10;13.00;95.80
3348;DHT22;1687;49.540;8.574;2023-02-23T09:01:37;13.00;95.50
3348;DHT22;1687;49.540;8.574;2023-02-23T09:04:04;13.10;95.50
3348;DHT22;1687;49.540;8.574;2023-02-23T09:06:31;13.20;95.90
3348;DHT22;1687;49.540;8.574;2023-02-23T09:08:59;13.30;95.60
3348;DHT22;1687;49.540;8.574;2023-02-23T09:11:25;13.30;95.40
3348;DHT22;1687;49.540;8.574;2023-02-23T09:13:51;13.20;95.20
3348;DHT22;1687;49.540;8.574;2023-02-23T09:16:16;13.10;95.40
3348;DHT22;1687;49.540;8.574;2023-02-23T09:18:42;13.10;95.70
3348;DHT22;1687;49.540;8.574;2023-02-23T09:21:14;13.20;96.00
3348;DHT22;1687;49.540;8.574;2023-02-23T09:23:47;13.30;95.50
3348;DHT22;1687;49.540;8.574;2023-02-23T09:26:15;13.20;95.50
3348;DHT22;1687;49.540;8.574;2023-02-23T09:28:43;13.20;95.60
3348;DHT22;1687;49.540;8.574;2023-02-23T09:31:11;13.30;95.70
3348;DHT22;1687;49.540;8.574;2023-02-23T09:33:42;13.40;95.90
3348;DHT22;1687;49.540;8.574;2023-02-23T09:36:10;13.50;95.80
3348;DHT22;1687;49.540;8.574;2023-02-23T09:38:45;13.70;96.00
3348;DHT22;1687;49.540;8.574;2023-02-23T09:44:01;14.10;95.90
3348;DHT22;1687;49.540;8.574;2023-02-23T09:49:25;14.20;96.20
3348;DHT22;1687;49.540;8.574;2023-02-23T09:51:56;14.40;96.10
3348;DHT22;1687;49.540;8.574;2023-02-23T09:54:27;14.50;95.80
3348;DHT22;1687;49.540;8.574;2023-02-23T09:56:55;14.50;95.40
3348;DHT22;1687;49.540;8.574;2023-02-23T09:59:23;14.40;95.30
3348;DHT22;1687;49.540;8.574;2023-02-23T10:04:45;14.40;95.80
3348;DHT22;1687;49.540;8.574;2023-02-23T10:10:05;14.60;95.70
3348;DHT22;1687;49.540;8.574;2023-02-23T10:18:23;14.80;95.20
3348;DHT22;1687;49.540;8.574;2023-02-23T10:21:20;14.80;95.10
3348;DHT22;1687;49.540;8.574;2023-02-23T10:24:02;14.90;95.30
3348;DHT22;1687;49.540;8.574;2023-02-23T10:26:50;15.00;95.10
3348;DHT22;1687;49.540;8.574;2023-02-23T10:29:29;15.10;95.30
3348;DHT22;1687;49.540;8.574;2023-02-23T10:32:01;15.20;95.10
3348;DHT22;1687;49.540;8.574;2023-02-23T10:34:53;15.20;94.60
3348;DHT22;1687;49.540;8.574;2023-02-23T10:37:21;15.20;94.80
3348;DHT22;1687;49.540;8.574;2023-02-23T10:39:48;15.30;94.90
3348;DHT22;1687;49.540;8.574;2023-02-23T10:42:26;15.20;94.40
3348;DHT22;1687;49.540;8.574;2023-02-23T10:44:56;15.20;94.10
3348;DHT22;1687;49.540;8.574;2023-02-23T10:47:31;15.20;94.10
3348;DHT22;1687;49.540;8.574;2023-02-23T10:49:58;15.30;94.50
3348;DHT22;1687;49.540;8.574;2023-02-23T10:52:34;15.30;94.10
3348;DHT22;1687;49.540;8.574;2023-02-23T10:55:05;15.30;93.70
3348;DHT22;1687;49.540;8.574;2023-02-23T10:57:34;15.40;93.90
3348;DHT22;1687;49.540;8.574;2023-02-23T11:00:24;15.40;93.70
3348;DHT22;1687;49.540;8.574;2023-02-23T11:02:58;15.40;93.40
3348;DHT22;1687;49.540;8.574;2023-02-23T11:05:36;15.50;93.20
3348;DHT22;1687;49.540;8.574;2023-02-23T11:08:35;15.50;93.10
3348;DHT22;1687;49.540;8.574;2023-02-23T11:13:42;15.30;92.80
3348;DHT22;1687;49.540;8.574;2023-02-23T11:16:15;15.30;92.20
3348;DHT22;1687;49.540;8.574;2023-02-23T11:19:02;15.30;92.20
3348;DHT22;1687;49.540;8.574;2023-02-23T11:21:33;15.10;91.70
3348;DHT22;1687;49.540;8.574;2023-02-23T11:24:17;15.00;91.70
3348;DHT22;1687;49.540;8.574;2023-02-23T11:26:48;15.00;92.10
3348;DHT22;1687;49.540;8.574;2023-02-23T11:29:24;15.10;92.20
3348;DHT22;1687;49.540;8.574;2023-02-23T11:31:58;15.30;92.10
3348;DHT22;1687;49.540;8.574;2023-02-23T11:34:30;15.20;91.40
3348;DHT22;1687;49.540;8.574;2023-02-23T11:37:00;15.20;91.30
3348;DHT22;1687;49.540;8.574;2023-02-23T11:39:28;15.30;91.60
3348;DHT22;1687;49.540;8.574;2023-02-23T11:44:49;15.40;90.90
3348;DHT22;1687;49.540;8.574;2023-02-23T11:47:39;15.50;91.20
3348;DHT22;1687;49.540;8.574;2023-02-23T11:50:07;15.80;91.10
3348;DHT22;1687;49.540;8.574;2023-02-23T11:52:45;15.90;91.20
3348;DHT22;1687;49.540;8.574;2023-02-23T11:55:17;16.10;90.60
3348;DHT22;1687;49.540;8.574;2023-02-23T11:57:44;16.10;90.40
3348;DHT22;1687;49.540;8.574;2023-02-23T12:00:22;16.30;90.90
3348;DHT22;1687;49.540;8.574;2023-02-23T12:02:55;16.50;90.60
3348;DHT22;1687;49.540;8.574;2023-02-23T12:05:30;16.70;90.40
3348;DHT22;1687;49.540;8.574;2023-02-23T12:10:46;16.80;89.10
3348;DHT22;1687;49.540;8.574;2023-02-23T12:13:49;16.80;89.10
3348;DHT22;1687;49.540;8.574;2023-02-23T12:16:39;16.90;89.10
3348;DHT22;1687;49.540;8.574;2023-02-23T12:33:24;17.00;86.40
3348;DHT22;1687;49.540;8.574;2023-02-23T12:35:58;16.90;84.90
3348;DHT22;1687;49.540;8.574;2023-02-23T12:39:02;16.70;85.20
3348;DHT22;1687;49.540;8.574;2023-02-23T12:44:48;16.50;83.60
3348;DHT22;1687;49.540;8.574;2023-02-23T12:47:31;16.30;83.20
3348;DHT22;1687;49.540;8.574;2023-02-23T12:50:10;16.10;83.00
3348;DHT22;1687;49.540;8.574;2023-02-23T12:52:46;16.10;82.70
3348;DHT22;1687;49.540;8.574;2023-02-23T13:01:36;16.00;82.00
3348;DHT22;1687;49.540;8.574;2023-02-23T13:04:28;16.10;82.10
3348;DHT22;1687;49.540;8.574;2023-02-23T13:07:20;16.10;81.70
3348;DHT22;1687;49.540;8.574;2023-02-23T13:18:54;16.30;81.10
3348;DHT22;1687;49.540;8.574;2023-02-23T13:22:06;16.30;81.20
3348;DHT22;1687;49.540;8.574;2023-02-23T13:24:45;16.40;81.50
3348;DHT22;1687;49.540;8.574;2023-02-23T13:27:17;16.50;80.90
3348;DHT22;1687;49.540;8.574;2023-02-23T13:29:46;16.50;81.10
3348;DHT22;1687;49.540;8.574;2023-02-23T13:32:19;16.60;80.40
3348;DHT22;1687;49.540;8.574;2023-02-23T13:34:58;16.50;80.40
3348;DHT22;1687;49.540;8.574;2023-02-23T13:37:32;16.50;80.40
3348;DHT22;1687;49.540;8.574;2023-02-23T13:43:09;16.50;79.80
3348;DHT22;1687;49.540;8.574;2023-02-23T13:45:46;16.50;79.60
3348;DHT22;1687;49.540;8.574;2023-02-23T13:54:04;16.50;78.80
3348;DHT22;1687;49.540;8.574;2023-02-23T13:56:55;16.40;78.80
3348;DHT22;1687;49.540;8.574;2023-02-23T13:59:28;16.40;78.70
3348;DHT22;1687;49.540;8.574;2023-02-23T14:02:00;16.50;78.50
3348;DHT22;1687;49.540;8.574;2023-02-23T14:04:35;16.40;78.20
3348;DHT22;1687;49.540;8.574;2023-02-23T14:07:17;16.40;78.30
3348;DHT22;1687;49.540;8.574;2023-02-23T14:09:55;16.50;78.30
3348;DHT22;1687;49.540;8.574;2023-02-23T14:13:07;16.50;77.90
3348;DHT22;1687;49.540;8.574;2023-02-23T14:15:47;16.40;77.30
3348;DHT22;1687;49.540;8.574;2023-02-23T14:20:45;16.40;77.40
3348;DHT22;1687;49.540;8.574;2023-02-23T14:26:10;16.30;77.10
3348;DHT22;1687;49.540;8.574;2023-02-23T14:28:40;16.30;77.10
3348;DHT22;1687;49.540;8.574;2023-02-23T14:39:00;16.40;76.30
3348;DHT22;1687;49.540;8.574;2023-02-23T14:41:44;16.30;76.20
3348;DHT22;1687;49.540;8.574;2023-02-23T14:44:27;16.30;75.90
3348;DHT22;1687;49.540;8.574;2023-02-23T14:47:14;16.20;75.40
3348;DHT22;1687;49.540;8.574;2023-02-23T14:49:47;16.00;75.30
3348;DHT22;1687;49.540;8.574;2023-02-23T14:52:27;15.90;75.20
3348;DHT22;1687;49.540;8.574;2023-02-23T14:57:36;15.70;75.30
3348;DHT22;1687;49.540;8.574;2023-02-23T15:05:30;15.80;75.00
3348;DHT22;1687;49.540;8.574;2023-02-23T15:08:05;15.80;74.90
3348;DHT22;1687;49.540;8.574;2023-02-23T15:10:37;15.80;75.10
3348;DHT22;1687;49.540;8.574;2023-02-23T15:15:53;15.80;74.70
3348;DHT22;1687;49.540;8.574;2023-02-23T15:21:58;15.70;75.00
3348;DHT22;1687;49.540;8.574;2023-02-23T15:24:29;15.70;74.60
3348;DHT22;1687;49.540;8.574;2023-02-23T15:26:56;15.60;74.30
3348;DHT22;1687;49.540;8.574;2023-02-23T15:29:25;15.50;74.60
3348;DHT22;1687;49.540;8.574;2023-02-23T15:31:55;15.50;74.70
3348;DHT22;1687;49.540;8.574;2023-02-23T15:34:39;15.50;74.70
3348;DHT22;1687;49.540;8.574;2023-02-23T15:37:19;15.40;74.30
3348;DHT22;1687;49.540;8.574;2023-02-23T15:39:52;15.30;74.50
3348;DHT22;1687;49.540;8.574;2023-02-23T15:42:24;15.30;74.60
3348;DHT22;1687;49.540;8.574;2023-02-23T15:44:59;15.30;74.40
3348;DHT22;1687;49.540;8.574;2023-02-23T15:47:31;15.30;74.90
3348;DHT22;1687;49.540;8.574;2023-02-23T15:50:02;15.40;74.90
3348;DHT22;1687;49.540;8.574;2023-02-23T15:52:30;15.50;74.90
3348;DHT22;1687;49.540;8.574;2023-02-23T15:55:09;15.50;74.70
3348;DHT22;1687;49.540;8.574;2023-02-23T15:57:46;15.60;74.60
3348;DHT22;1687;49.540;8.574;2023-02-23T16:00:21;15.50;74.40
3348;DHT22;1687;49.540;8.574;2023-02-23T16:03:04;15.50;74.20
3348;DHT22;1687;49.540;8.574;2023-02-23T16:05:34;15.30;74.20
3348;DHT22;1687;49.540;8.574;2023-02-23T16:08:22;15.30;74.30
3348;DHT22;1687;49.540;8.574;2023-02-23T16:11:09;15.20;74.00
3348;DHT22;1687;49.540;8.574;2023-02-23T16:13:44;15.20;74.20
3348;DHT22;1687;49.540;8.574;2023-02-23T16:16:13;15.10;74.20
3348;DHT22;1687;49.540;8.574;2023-02-23T16:18:45;15.10;74.20
3348;DHT22;1687;49.540;8.574;2023-02-23T16:21:23;15.00;74.10
3348;DHT22;1687;49.540;8.574;2023-02-23T16:23:51;15.00;74.40
3348;DHT22;1687;49.540;8.574;2023-02-23T16:26:22;15.00;74.40
3348;DHT22;1687;49.540;8.574;2023-02-23T16:28:57;14.90;74.00
3348;DHT22;1687;49.540;8.574;2023-02-23T16:32:15;14.90;74.30
3348;DHT22;1687;49.540;8.574;2023-02-23T16:34:47;14.80;74.20
3348;DHT22;1687;49.540;8.574;2023-02-23T16:37:20;14.80;74.40
3348;DHT22;1687;49.540;8.574;2023-02-23T16:39:49;14.80;74.40
3348;DHT22;1687;49.540;8.574;2023-02-23T16:42:31;14.70;74.10
3348;DHT22;1687;49.540;8.574;2023-02-23T16:44:58;14.60;74.20
3348;DHT22;1687;49.540;8.574;2023-02-23T16:47:28;14.60;74.40
3348;DHT22;1687;49.540;8.574;2023-02-23T16:50:19;14.60;74.40
3348;DHT22;1687;49.540;8.574;2023-02-23T16:52:49;14.40;74.20
3348;DHT22;1687;49.540;8.574;2023-02-23T16:55:23;14.40;74.40
3348;DHT22;1687;49.540;8.574;2023-02-23T16:57:56;14.30;74.50
3348;DHT22;1687;49.540;8.574;2023-02-23T17:00:26;14.30;74.30
3348;DHT22;1687;49.540;8.574;2023-02-23T17:02:54;14.30;74.50
3348;DHT22;1687;49.540;8.574;2023-02-23T17:05:22;14.20;74.60
3348;DHT22;1687;49.540;8.574;2023-02-23T17:07:52;14.10;74.40
3348;DHT22;1687;49.540;8.574;2023-02-23T17:10:23;14.10;74.60
3348;DHT22;1687;49.540;8.574;2023-02-23T17:12:56;14.10;74.70
3348;DHT22;1687;49.540;8.574;2023-02-23T17:15:26;14.00;74.60
3348;DHT22;1687;49.540;8.574;2023-02-23T17:17:53;14.00;74.70
3348;DHT22;1687;49.540;8.574;2023-02-23T17:20:22;14.00;75.00
3348;DHT22;1687;49.540;8.574;2023-02-23T17:22:53;14.10;75.20
3348;DHT22;1687;49.540;8.574;2023-02-23T17:25:21;14.00;74.80
3348;DHT22;1687;49.540;8.574;2023-02-23T17:27:49;14.00;75.00
3348;DHT22;1687;49.540;8.574;2023-02-23T17:30:15;14.00;75.10
3348;DHT22;1687;49.540;8.574;2023-02-23T17:32:42;14.00;75.10
3348;DHT22;1687;49.540;8.574;2023-02-23T17:35:08;14.00;74.90
3348;DHT22;1687;49.540;8.574;2023-02-23T17:37:34;14.00;75.30
3348;DHT22;1687;49.540;8.574;2023-02-23T17:40:04;14.00;75.20
3348;DHT22;1687;49.540;8.574;2023-02-23T17:42:30;13.90;75.10
3348;DHT22;1687;49.540;8.574;2023-02-23T17:45:04;14.00;75.50
3348;DHT22;1687;49.540;8.574;2023-02-23T17:47:32;13.90;75.40
3348;DHT22;1687;49.540;8.574;2023-02-23T17:49:59;13.90;75.00
3348;DHT22;1687;49.540;8.574;2023-02-23T17:52:26;13.90;75.50
3348;DHT22;1687;49.540;8.574;2023-02-23T17:54:53;13.80;75.50
3348;DHT22;1687;49.540;8.574;2023-02-23T17:57:21;13.80;75.60
3348;DHT22;1687;49.540;8.574;2023-02-23T17:59:47;13.80;75.80
3348;DHT22;1687;49.540;8.574;2023-02-23T18:02:14;13.80;75.40
3348;DHT22;1687;49.540;8.574;2023-02-23T18:04:42;13.70;75.50
3348;DHT22;1687;49.540;8.574;2023-02-23T18:07:09;13.70;75.80
3348;DHT22;1687;49.540;8.574;2023-02-23T18:09:35;13.70;76.00
3348;DHT22;1687;49.540;8.574;2023-02-23T18:12:01;13.70;75.90
3348;DHT22;1687;49.540;8.574;2023-02-23T18:14:27;13.70;75.70
3348;DHT22;1687;49.540;8.574;2023-02-23T18:16:53;13.70;76.10
3348;DHT22;1687;49.540;8.574;2023-02-23T18:19:19;13.70;76.30
3348;DHT22;1687;49.540;8.574;2023-02-23T18:21:45;13.70;76.30
3348;DHT22;1687;49.540;8.574;2023-02-23T18:24:11;13.70;76.20
3348;DHT22;1687;49.540;8.574;2023-02-23T18:26:38;13.70;76.20
3348;DHT22;1687;49.540;8.574;2023-02-23T18:29:04;13.70;77.00
3348;DHT22;1687;49.540;8.574;2023-02-23T18:31:31;13.70;76.20
3348;DHT22;1687;49.540;8.574;2023-02-23T18:33:58;13.60;76.40
3348;DHT22;1687;49.540;8.574;2023-02-23T18:36:32;13.70;76.60
3348;DHT22;1687;49.540;8.574;2023-02-23T18:39:00;13.70;76.50